sensor_id;sensor_type;location;lat;lon;timestamp;P1;P2;P0
44045;PMS7003;29709;52.396;16.796;2023-05-07T00:00:33;5;5;4
44045;PMS7003;29709;52.396;16.796;2023-05-07T00:03:46;7;5;4
44045;PMS7003;29709;52.396;16.796;2023-05-07T00:07:00;5;3;2
44045;PMS7003;29709;52.396;16.796;2023-05-07T00:10:13;0;0;0
44045;PMS7003;29709;52.396;16.796;2023-05-07T00:13:26;4;2;2
44045;PMS7003;29709;52.396;16.796;2023-05-07T00:16:43;4;3;2
44045;PMS7003;29709;52.396;16.796;2023-05-07T00:19:56;6;4;3
44045;PMS7003;29709;52.396;16.796;2023-05-07T00:23:09;2;2;1
44045;PMS7003;29709;52.396;16.796;2023-05-07T00:26:22;3;3;2
44045;PMS7003;29709;52.396;16.796;2023-05-07T00:29:36;3;2;2
44045;PMS7003;29709;52.396;16.796;2023-05-07T00:32:49;2;1;1
44045;PMS7003;29709;52.396;16.796;2023-05-07T00:36:03;6;4;3
44045;PMS7003;29709;52.396;16.796;2023-05-07T00:39:17;5;3;3
44045;PMS7003;29709;52.396;16.796;2023-05-07T00:42:30;4;4;3
44045;PMS7003;29709;52.396;16.796;2023-05-07T00:45:45;2;2;1
44045;PMS7003;29709;52.396;16.796;2023-05-07T00:48:58;3;2;2
44045;PMS7003;29709;52.396;16.796;2023-05-07T00:52:13;3;3;2
44045;PMS7003;29709;52.396;16.796;2023-05-07T00:55:28;3;3;2
44045;PMS7003;29709;52.396;16.796;2023-05-07T00:58:41;4;3;2
44045;PMS7003;29709;52.396;16.796;2023-05-07T01:01:55;4;3;2
44045;PMS7003;29709;52.396;16.796;2023-05-07T01:05:09;3;3;2
44045;PMS7003;29709;52.396;16.796;2023-05-07T01:08:26;4;4;3
44045;PMS7003;29709;52.396;16.796;2023-05-07T01:11:42;4;3;3
44045;PMS7003;29709;52.396;16.796;2023-05-07T01:14:57;5;5;3
44045;PMS7003;29709;52.396;16.796;2023-05-07T01:18:10;4;3;3
44045;PMS7003;29709;52.396;16.796;2023-05-07T01:21:25;4;4;3
44045;PMS7003;29709;52.396;16.796;2023-05-07T01:24:39;1;1;0
44045;PMS7003;29709;52.396;16.796;2023-05-07T01:27:52;5;5;4
44045;PMS7003;29709;52.396;16.796;2023-05-07T01:31:06;7;5;4
44045;PMS7003;29709;52.396;16.796;2023-05-07T01:34:20;4;4;3
44045;PMS7003;29709;52.396;16.796;2023-05-07T01:37:35;7;5;4
44045;PMS7003;29709;52.396;16.796;2023-05-07T01:40:48;4;4;4
44045;PMS7003;29709;52.396;16.796;2023-05-07T01:44:03;8;6;4
44045;PMS7003;29709;52.396;16.796;2023-05-07T01:47:17;2;2;2
44045;PMS7003;29709;52.396;16.796;2023-05-07T01:50:31;6;5;3
44045;PMS7003;29709;52.396;16.796;2023-05-07T01:53:46;6;5;4
44045;PMS7003;29709;52.396;16.796;2023-05-07T01:57:03;5;4;3
44045;PMS7003;29709;52.396;16.796;2023-05-07T02:00:16;4;2;2
44045;PMS7003;29709;52.396;16.796;2023-05-07T02:03:31;6;3;3
44045;PMS7003;29709;52.396;16.796;2023-05-07T02:06:44;6;3;2
44045;PMS7003;29709;52.396;16.796;2023-05-07T02:09:58;5;3;3
44045;PMS7003;29709;52.396;16.796;2023-05-07T02:13:12;4;4;3
44045;PMS7003;29709;52.396;16.796;2023-05-07T02:16:25;4;3;2
44045;PMS7003;29709;52.396;16.796;2023-05-07T02:19:39;0;0;0
44045;PMS7003;29709;52.396;16.796;2023-05-07T02:22:53;4;2;1
44045;PMS7003;29709;52.396;16.796;2023-05-07T02:26:06;4;3;3
44045;PMS7003;29709;52.396;16.796;2023-05-07T02:29:19;1;1;0
44045;PMS7003;29709;52.396;16.796;2023-05-07T02:32:32;4;4;3
44045;PMS7003;29709;52.396;16.796;2023-05-07T02:35:46;8;4;3
44045;PMS7003;29709;52.396;16.796;2023-05-07T02:38:59;6;5;5
44045;PMS7003;29709;52.396;16.796;2023-05-07T02:42:13;5;4;3
44045;PMS7003;29709;52.396;16.796;2023-05-07T02:45:26;6;5;3
44045;PMS7003;29709;52.396;16.796;2023-05-07T02:48:39;4;4;3
44045;PMS7003;29709;52.396;16.796;2023-05-07T02:51:52;6;4;3
44045;PMS7003;29709;52.396;16.796;2023-05-07T02:55:07;3;2;2
44045;PMS7003;29709;52.396;16.796;2023-05-07T02:58:20;3;2;2
44045;PMS7003;29709;52.396;16.796;2023-05-07T03:01:33;5;3;3
44045;PMS7003;29709;52.396;16.796;2023-05-07T03:04:47;5;3;2
44045;PMS7003;29709;52.396;16.796;2023-05-07T03:08:00;5;3;2
44045;PMS7003;29709;52.396;16.796;2023-05-07T03:11:13;6;4;3
44045;PMS7003;29709;52.396;16.796;2023-05-07T03:14:27;7;5;3
44045;PMS7003;29709;52.396;16.796;2023-05-07T03:17:40;5;4;4
44045;PMS7003;29709;52.396;16.796;2023-05-07T03:20:53;5;5;3
44045;PMS7003;29709;52.396;16.796;2023-05-07T03:24:07;3;3;2
44045;PMS7003;29709;52.396;16.796;2023-05-07T03:27:20;6;6;4
44045;PMS7003;29709;52.396;16.796;2023-05-07T03:30:33;7;5;4
44045;PMS7003;29709;52.396;16.796;2023-05-07T03:37:07;6;5;4
44045;PMS7003;29709;52.396;16.796;2023-05-07T03:40:20;5;4;3
44045;PMS7003;29709;52.396;16.796;2023-05-07T03:43:33;5;4;3
44045;PMS7003;29709;52.396;16.796;2023-05-07T03:46:46;6;5;4
44045;PMS7003;29709;52.396;16.796;2023-05-07T03:49:59;5;4;3
44045;PMS7003;29709;52.396;16.796;2023-05-07T03:53:12;7;5;3
44045;PMS7003;29709;52.396;16.796;2023-05-07T03:56:26;7;4;3
44045;PMS7003;29709;52.396;16.796;2023-05-07T03:59:40;5;5;3
44045;PMS7003;29709;52.396;16.796;2023-05-07T04:02:53;3;2;2
44045;PMS7003;29709;52.396;16.796;2023-05-07T04:06:06;5;5;3
44045;PMS7003;29709;52.396;16.796;2023-05-07T04:09:20;6;4;4
44045;PMS7003;29709;52.396;16.796;2023-05-07T04:12:33;4;3;2
44045;PMS7003;29709;52.396;16.796;2023-05-07T04:15:46;4;3;3
44045;PMS7003;29709;52.396;16.796;2023-05-07T04:19:01;8;4;4
44045;PMS7003;29709;52.396;16.796;2023-05-07T04:22:14;2;2;2
44045;PMS7003;29709;52.396;16.796;2023-05-07T04:25:28;6;5;3
44045;PMS7003;29709;52.396;16.796;2023-05-07T04:28:42;4;3;3
44045;PMS7003;29709;52.396;16.796;2023-05-07T04:31:55;4;3;3
44045;PMS7003;29709;52.396;16.796;2023-05-07T04:35:09;3;3;2
44045;PMS7003;29709;52.396;16.796;2023-05-07T04:38:22;4;4;3
44045;PMS7003;29709;52.396;16.796;2023-05-07T04:41:39;4;3;2
44045;PMS7003;29709;52.396;16.796;2023-05-07T04:44:52;5;3;2
44045;PMS7003;29709;52.396;16.796;2023-05-07T04:48:08;4;3;3
44045;PMS7003;29709;52.396;16.796;2023-05-07T04:51:22;4;4;3
44045;PMS7003;29709;52.396;16.796;2023-05-07T04:54:35;3;2;1
44045;PMS7003;29709;52.396;16.796;2023-05-07T04:57:49;4;4;3
44045;PMS7003;29709;52.396;16.796;2023-05-07T05:01:03;6;4;3
44045;PMS7003;29709;52.396;16.796;2023-05-07T05:04:17;7;4;3
44045;PMS7003;29709;52.396;16.796;2023-05-07T05:07:30;5;4;3
44045;PMS7003;29709;52.396;16.796;2023-05-07T05:10:44;5;4;4
44045;PMS7003;29709;52.396;16.796;2023-05-07T05:13:58;4;3;3
44045;PMS7003;29709;52.396;16.796;2023-05-07T05:17:14;3;3;2
44045;PMS7003;29709;52.396;16.796;2023-05-07T05:20:27;4;4;3
44045;PMS7003;29709;52.396;16.796;2023-05-07T05:23:40;6;4;3
44045;PMS7003;29709;52.396;16.796;2023-05-07T05:26:54;4;4;3
44045;PMS7003;29709;52.396;16.796;2023-05-07T05:30:07;3;3;2
44045;PMS7003;29709;52.396;16.796;2023-05-07T05:33:21;3;3;3
44045;PMS7003;29709;52.396;16.796;2023-05-07T05:36:34;3;2;2
44045;PMS7003;29709;52.396;16.796;2023-05-07T05:39:48;3;2;1
44045;PMS7003;29709;52.396;16.796;2023-05-07T05:43:01;2;2;1
44045;PMS7003;29709;52.396;16.796;2023-05-07T05:46:14;1;1;1
44045;PMS7003;29709;52.396;16.796;2023-05-07T05:49:27;2;2;1
44045;PMS7003;29709;52.396;16.796;2023-05-07T05:52:41;1;1;1
44045;PMS7003;29709;52.396;16.796;2023-05-07T05:55:54;1;1;0
44045;PMS7003;29709;52.396;16.796;2023-05-07T05:59:08;2;1;1
44045;PMS7003;29709;52.396;16.796;2023-05-07T06:02:21;1;1;1
44045;PMS7003;29709;52.396;16.796;2023-05-07T06:05:34;3;2;1
44045;PMS7003;29709;52.396;16.796;2023-05-07T06:08:48;2;2;1
44045;PMS7003;29709;52.396;16.796;2023-05-07T06:12:01;0;0;0
44045;PMS7003;29709;52.396;16.796;2023-05-07T06:15:14;4;2;1
44045;PMS7003;29709;52.396;16.796;2023-05-07T06:18:28;2;2;1
44045;PMS7003;29709;52.396;16.796;2023-05-07T06:21:41;1;1;1
44045;PMS7003;29709;52.396;16.796;2023-05-07T06:24:54;2;2;1
44045;PMS7003;29709;52.396;16.796;2023-05-07T06:28:07;2;2;1
44045;PMS7003;29709;52.396;16.796;2023-05-07T06:31:28;2;2;1
44045;PMS7003;29709;52.396;16.796;2023-05-07T06:34:44;1;1;0
44045;PMS7003;29709;52.396;16.796;2023-05-07T06:37:57;1;1;0
44045;PMS7003;29709;52.396;16.796;2023-05-07T06:41:10;0;0;0
44045;PMS7003;29709;52.396;16.796;2023-05-07T06:44:24;2;1;1
44045;PMS7003;29709;52.396;16.796;2023-05-07T06:47:38;2;2;1
44045;PMS7003;29709;52.396;16.796;2023-05-07T06:50:51;1;1;0
44045;PMS7003;29709;52.396;16.796;2023-05-07T06:54:04;1;1;0
44045;PMS7003;29709;52.396;16.796;2023-05-07T06:57:18;1;1;0
44045;PMS7003;29709;52.396;16.796;2023-05-07T07:00:31;0;0;0
44045;PMS7003;29709;52.396;16.796;2023-05-07T07:03:44;0;0;0
44045;PMS7003;29709;52.396;16.796;2023-05-07T07:06:58;3;0;0
44045;PMS7003;29709;52.396;16.796;2023-05-07T07:10:11;0;0;0
44045;PMS7003;29709;52.396;16.796;2023-05-07T07:13:24;1;0;0
44045;PMS7003;29709;52.396;16.796;2023-05-07T07:16:37;0;0;0
44045;PMS7003;29709;52.396;16.796;2023-05-07T07:19:51;0;0;0
44045;PMS7003;29709;52.396;16.796;2023-05-07T07:23:04;0;0;0
44045;PMS7003;29709;52.396;16.796;2023-05-07T07:26:17;0;0;0
44045;PMS7003;29709;52.396;16.796;2023-05-07T07:29:31;0;0;0
44045;PMS7003;29709;52.396;16.796;2023-05-07T07:32:44;1;0;0
44045;PMS7003;29709;52.396;16.796;2023-05-07T07:35:57;0;0;0
44045;PMS7003;29709;52.396;16.796;2023-05-07T07:39:10;0;0;0
44045;PMS7003;29709;52.396;16.796;2023-05-07T07:42:24;0;0;0
44045;PMS7003;29709;52.396;16.796;2023-05-07T07:45:37;0;0;0
44045;PMS7003;29709;52.396;16.796;2023-05-07T07:48:50;0;0;0
44045;PMS7003;29709;52.396;16.796;2023-05-07T07:52:04;0;0;0
44045;PMS7003;29709;52.396;16.796;2023-05-07T07:55:19;0;0;0
44045;PMS7003;29709;52.396;16.796;2023-05-07T07:58:35;0;0;0
44045;PMS7003;29709;52.396;16.796;2023-05-07T08:01:51;0;0;0
44045;PMS7003;29709;52.396;16.796;2023-05-07T08:05:09;0;0;0
44045;PMS7003;29709;52.396;16.796;2023-05-07T08:08:22;0;0;0
44045;PMS7003;29709;52.396;16.796;2023-05-07T08:11:35;0;0;0
44045;PMS7003;29709;52.396;16.796;2023-05-07T08:14:49;0;0;0
44045;PMS7003;29709;52.396;16.796;2023-05-07T08:18:02;0;0;0
44045;PMS7003;29709;52.396;16.796;2023-05-07T08:21:16;2;0;0
44045;PMS7003;29709;52.396;16.796;2023-05-07T08:27:16;2;0;0
44045;PMS7003;29709;52.396;16.796;2023-05-07T08:30:30;1;0;0
44045;PMS7003;29709;52.396;16.796;2023-05-07T08:33:43;0;0;0
44045;PMS7003;29709;52.396;16.796;2023-05-07T08:36:56;0;0;0
44045;PMS7003;29709;52.396;16.796;2023-05-07T08:40:10;1;0;0
44045;PMS7003;29709;52.396;16.796;2023-05-07T08:43:24;1;1;1
44045;PMS7003;29709;52.396;16.796;2023-05-07T08:46:41;1;1;1
44045;PMS7003;29709;52.396;16.796;2023-05-07T08:49:56;1;1;0
44045;PMS7003;29709;52.396;16.796;2023-05-07T08:53:09;1;1;0
44045;PMS7003;29709;52.396;16.796;2023-05-07T08:56:22;1;1;1
44045;PMS7003;29709;52.396;16.796;2023-05-07T08:59:36;0;0;0
44045;PMS7003;29709;52.396;16.796;2023-05-07T09:02:49;0;0;0
44045;PMS7003;29709;52.396;16.796;2023-05-07T09:06:03;1;1;1
44045;PMS7003;29709;52.396;16.796;2023-05-07T09:09:16;1;0;0
44045;PMS7003;29709;52.396;16.796;2023-05-07T09:12:31;1;1;1
44045;PMS7003;29709;52.396;16.796;2023-05-07T09:15:45;2;1;1
44045;PMS7003;29709;52.396;16.796;2023-05-07T09:18:59;3;2;2
44045;PMS7003;29709;52.396;16.796;2023-05-07T09:22:13;1;1;1
44045;PMS7003;29709;52.396;16.796;2023-05-07T09:25:31;2;1;1
44045;PMS7003;29709;52.396;16.796;2023-05-07T09:28:45;1;1;1
44045;PMS7003;29709;52.396;16.796;2023-05-07T09:31:59;2;2;1
44045;PMS7003;29709;52.396;16.796;2023-05-07T09:35:15;1;1;1
44045;PMS7003;29709;52.396;16.796;2023-05-07T09:38:31;0;0;0
44045;PMS7003;29709;52.396;16.796;2023-05-07T09:41:48;3;2;2
44045;PMS7003;29709;52.396;16.796;2023-05-07T09:45:07;0;0;0
44045;PMS7003;29709;52.396;16.796;2023-05-07T09:48:21;2;2;2
44045;PMS7003;29709;52.396;16.796;2023-05-07T09:51:38;2;2;2
44045;PMS7003;29709;52.396;16.796;2023-05-07T09:54:58;3;3;2
44045;PMS7003;29709;52.396;16.796;2023-05-07T09:58:13;0;0;0
44045;PMS7003;29709;52.396;16.796;2023-05-07T10:01:30;1;1;1
44045;PMS7003;29709;52.396;16.796;2023-05-07T10:04:44;2;1;1
44045;PMS7003;29709;52.396;16.796;2023-05-07T10:07:59;1;1;1
44045;PMS7003;29709;52.396;16.796;2023-05-07T10:11:13;1;1;0
44045;PMS7003;29709;52.396;16.796;2023-05-07T10:14:28;2;2;1
44045;PMS7003;29709;52.396;16.796;2023-05-07T10:17:42;1;1;1
44045;PMS7003;29709;52.396;16.796;2023-05-07T10:20:55;3;2;2
44045;PMS7003;29709;52.396;16.796;2023-05-07T10:24:19;2;2;1
44045;PMS7003;29709;52.396;16.796;2023-05-07T10:27:38;0;0;0
44045;PMS7003;29709;52.396;16.796;2023-05-07T10:30:57;1;1;1
44045;PMS7003;29709;52.396;16.796;2023-05-07T10:34:18;2;1;1
44045;PMS7003;29709;52.396;16.796;2023-05-07T10:37:36;1;1;1
44045;PMS7003;29709;52.396;16.796;2023-05-07T10:40:51;1;1;0
44045;PMS7003;29709;52.396;16.796;2023-05-07T10:44:04;1;1;1
44045;PMS7003;29709;52.396;16.796;2023-05-07T10:47:18;2;2;1
44045;PMS7003;29709;52.396;16.796;2023-05-07T10:50:31;10;8;7
44045;PMS7003;29709;52.396;16.796;2023-05-07T10:53:45;2;1;1
44045;PMS7003;29709;52.396;16.796;2023-05-07T10:56:58;2;2;1
44045;PMS7003;29709;52.396;16.796;2023-05-07T11:07:18;3;3;2
44045;PMS7003;29709;52.396;16.796;2023-05-07T11:14:02;2;2;1
44045;PMS7003;29709;52.396;16.796;2023-05-07T11:17:15;5;4;3
44045;PMS7003;29709;52.396;16.796;2023-05-07T11:23:56;4;3;2
44045;PMS7003;29709;52.396;16.796;2023-05-07T11:27:10;4;3;3
44045;PMS7003;29709;52.396;16.796;2023-05-07T11:30:23;4;2;1
44045;PMS7003;29709;52.396;16.796;2023-05-07T11:33:37;3;1;1
44045;PMS7003;29709;52.396;16.796;2023-05-07T11:36:51;5;3;2
44045;PMS7003;29709;52.396;16.796;2023-05-07T11:40:06;3;2;1
44045;PMS7003;29709;52.396;16.796;2023-05-07T11:43:21;5;4;3
44045;PMS7003;29709;52.396;16.796;2023-05-07T11:46:34;5;2;1
44045;PMS7003;29709;52.396;16.796;2023-05-07T11:49:48;1;1;1
44045;PMS7003;29709;52.396;16.796;2023-05-07T11:56:22;2;1;1
44045;PMS7003;29709;52.396;16.796;2023-05-07T11:59:39;1;0;0
44045;PMS7003;29709;52.396;16.796;2023-05-07T12:02:59;1;1;1
44045;PMS7003;29709;52.396;16.796;2023-05-07T12:06:18;1;1;1
44045;PMS7003;29709;52.396;16.796;2023-05-07T12:09:34;1;1;1
44045;PMS7003;29709;52.396;16.796;2023-05-07T12:12:48;1;1;0
44045;PMS7003;29709;52.396;16.796;2023-05-07T12:16:01;1;1;1
44045;PMS7003;29709;52.396;16.796;2023-05-07T12:19:16;0;0;0
44045;PMS7003;29709;52.396;16.796;2023-05-07T12:22:29;3;2;2
44045;PMS7003;29709;52.396;16.796;2023-05-07T12:25:43;2;2;1
44045;PMS7003;29709;52.396;16.796;2023-05-07T12:29:02;1;1;1
44045;PMS7003;29709;52.396;16.796;2023-05-07T12:32:16;1;1;1
44045;PMS7003;29709;52.396;16.796;2023-05-07T12:35:31;2;2;1
44045;PMS7003;29709;52.396;16.796;2023-05-07T12:38:51;2;1;1
44045;PMS7003;29709;52.396;16.796;2023-05-07T12:42:07;1;1;1
44045;PMS7003;29709;52.396;16.796;2023-05-07T12:45:20;1;1;1
44045;PMS7003;29709;52.396;16.796;2023-05-07T12:48:35;1;1;1
44045;PMS7003;29709;52.396;16.796;2023-05-07T12:51:50;2;1;1
44045;PMS7003;29709;52.396;16.796;2023-05-07T12:55:07;1;1;1
44045;PMS7003;29709;52.396;16.796;2023-05-07T13:01:43;0;0;0
44045;PMS7003;29709;52.396;16.796;2023-05-07T13:04:57;1;1;1
44045;PMS7003;29709;52.396;16.796;2023-05-07T13:08:10;1;0;0
44045;PMS7003;29709;52.396;16.796;2023-05-07T13:11:23;1;1;1
44045;PMS7003;29709;52.396;16.796;2023-05-07T13:14:37;2;1;1
44045;PMS7003;29709;52.396;16.796;2023-05-07T13:17:51;1;1;0
44045;PMS7003;29709;52.396;16.796;2023-05-07T13:21:04;2;2;2
44045;PMS7003;29709;52.396;16.796;2023-05-07T13:24:18;0;0;0
44045;PMS7003;29709;52.396;16.796;2023-05-07T13:27:31;3;3;2
44045;PMS7003;29709;52.396;16.796;2023-05-07T13:30:44;2;2;2
44045;PMS7003;29709;52.396;16.796;2023-05-07T13:33:57;2;1;1
44045;PMS7003;29709;52.396;16.796;2023-05-07T13:37:11;1;1;0
44045;PMS7003;29709;52.396;16.796;2023-05-07T13:40:24;1;1;1
44045;PMS7003;29709;52.396;16.796;2023-05-07T13:43:38;2;2;2
44045;PMS7003;29709;52.396;16.796;2023-05-07T13:46:51;4;2;2
44045;PMS7003;29709;52.396;16.796;2023-05-07T13:50:04;3;2;2
44045;PMS7003;29709;52.396;16.796;2023-05-07T13:53:18;2;1;1
44045;PMS7003;29709;52.396;16.796;2023-05-07T13:56:31;3;2;1
44045;PMS7003;29709;52.396;16.796;2023-05-07T13:59:45;1;1;1
44045;PMS7003;29709;52.396;16.796;2023-05-07T14:02:58;2;2;2
44045;PMS7003;29709;52.396;16.796;2023-05-07T14:06:11;2;1;1
44045;PMS7003;29709;52.396;16.796;2023-05-07T14:09:25;4;4;3
44045;PMS7003;29709;52.396;16.796;2023-05-07T14:12:38;3;2;2
44045;PMS7003;29709;52.396;16.796;2023-05-07T14:15:51;4;3;3
44045;PMS7003;29709;52.396;16.796;2023-05-07T14:19:05;6;5;4
44045;PMS7003;29709;52.396;16.796;2023-05-07T14:22:18;3;3;2
44045;PMS7003;29709;52.396;16.796;2023-05-07T14:25:34;5;4;3
44045;PMS7003;29709;52.396;16.796;2023-05-07T14:28:47;4;4;3
44045;PMS7003;29709;52.396;16.796;2023-05-07T14:32:03;5;3;2
44045;PMS7003;29709;52.396;16.796;2023-05-07T14:35:17;5;4;3
44045;PMS7003;29709;52.396;16.796;2023-05-07T14:38:31;7;6;5
44045;PMS7003;29709;52.396;16.796;2023-05-07T14:41:45;5;4;4
44045;PMS7003;29709;52.396;16.796;2023-05-07T14:44:58;3;2;2
44045;PMS7003;29709;52.396;16.796;2023-05-07T14:48:12;10;10;7
44045;PMS7003;29709;52.396;16.796;2023-05-07T14:51:27;1;1;1
44045;PMS7003;29709;52.396;16.796;2023-05-07T14:54:41;2;2;1
44045;PMS7003;29709;52.396;16.796;2023-05-07T14:57:55;3;2;2
44045;PMS7003;29709;52.396;16.796;2023-05-07T15:01:09;1;0;0
44045;PMS7003;29709;52.396;16.796;2023-05-07T15:04:23;1;1;1
44045;PMS7003;29709;52.396;16.796;2023-05-07T15:07:37;1;1;1
44045;PMS7003;29709;52.396;16.796;2023-05-07T15:10:50;2;2;1
44045;PMS7003;29709;52.396;16.796;2023-05-07T15:14:04;3;2;1
44045;PMS7003;29709;52.396;16.796;2023-05-07T15:17:17;2;2;1
44045;PMS7003;29709;52.396;16.796;2023-05-07T15:20:31;1;1;1
44045;PMS7003;29709;52.396;16.796;2023-05-07T15:23:44;1;1;1
44045;PMS7003;29709;52.396;16.796;2023-05-07T15:26:58;2;2;1
44045;PMS7003;29709;52.396;16.796;2023-05-07T15:30:12;2;1;1
44045;PMS7003;29709;52.396;16.796;2023-05-07T15:33:26;2;2;2
44045;PMS7003;29709;52.396;16.796;2023-05-07T15:36:40;0;0;0
44045;PMS7003;29709;52.396;16.796;2023-05-07T15:39:53;1;1;1
44045;PMS7003;29709;52.396;16.796;2023-05-07T15:43:11;1;1;1
44045;PMS7003;29709;52.396;16.796;2023-05-07T15:46:25;1;1;1
44045;PMS7003;29709;52.396;16.796;2023-05-07T15:49:39;1;1;0
44045;PMS7003;29709;52.396;16.796;2023-05-07T15:52:53;2;2;2
44045;PMS7003;29709;52.396;16.796;2023-05-07T15:56:06;3;3;2
44045;PMS7003;29709;52.396;16.796;2023-05-07T15:59:20;3;2;2
44045;PMS7003;29709;52.396;16.796;2023-05-07T16:02:34;2;1;1
44045;PMS7003;29709;52.396;16.796;2023-05-07T16:05:48;2;2;1
44045;PMS7003;29709;52.396;16.796;2023-05-07T16:09:03;3;2;2
44045;PMS7003;29709;52.396;16.796;2023-05-07T16:12:16;1;1;1
44045;PMS7003;29709;52.396;16.796;2023-05-07T16:15:30;3;2;2
44045;PMS7003;29709;52.396;16.796;2023-05-07T16:18:43;3;2;2
44045;PMS7003;29709;52.396;16.796;2023-05-07T16:21:56;3;3;2
44045;PMS7003;29709;52.396;16.796;2023-05-07T16:25:10;3;2;2
44045;PMS7003;29709;52.396;16.796;2023-05-07T16:28:26;4;2;2
44045;PMS7003;29709;52.396;16.796;2023-05-07T16:31:40;3;2;2
44045;PMS7003;29709;52.396;16.796;2023-05-07T16:34:53;2;1;1
44045;PMS7003;29709;52.396;16.796;2023-05-07T16:38:07;2;2;1
44045;PMS7003;29709;52.396;16.796;2023-05-07T16:41:23;3;2;2
44045;PMS7003;29709;52.396;16.796;2023-05-07T16:44:36;2;2;1
44045;PMS7003;29709;52.396;16.796;2023-05-07T16:47:49;2;2;1
44045;PMS7003;29709;52.396;16.796;2023-05-07T16:51:03;2;2;1
44045;PMS7003;29709;52.396;16.796;2023-05-07T16:54:16;0;0;0
44045;PMS7003;29709;52.396;16.796;2023-05-07T16:57:29;3;2;2
44045;PMS7003;29709;52.396;16.796;2023-05-07T17:00:44;3;3;2
44045;PMS7003;29709;52.396;16.796;2023-05-07T17:03:57;3;2;2
44045;PMS7003;29709;52.396;16.796;2023-05-07T17:07:10;3;2;2
44045;PMS7003;29709;52.396;16.796;2023-05-07T17:10:24;2;2;1
44045;PMS7003;29709;52.396;16.796;2023-05-07T17:13:37;3;2;2
44045;PMS7003;29709;52.396;16.796;2023-05-07T17:16:52;2;2;1
44045;PMS7003;29709;52.396;16.796;2023-05-07T17:20:06;5;3;2
44045;PMS7003;29709;52.396;16.796;2023-05-07T17:23:20;3;3;2
44045;PMS7003;29709;52.396;16.796;2023-05-07T17:26:34;4;4;4
44045;PMS7003;29709;52.396;16.796;2023-05-07T17:29:50;3;3;3
44045;PMS7003;29709;52.396;16.796;2023-05-07T17:33:04;4;3;3
44045;PMS7003;29709;52.396;16.796;2023-05-07T17:36:17;2;2;1
44045;PMS7003;29709;52.396;16.796;2023-05-07T17:39:31;3;3;3
44045;PMS7003;29709;52.396;16.796;2023-05-07T17:42:44;3;3;2
44045;PMS7003;29709;52.396;16.796;2023-05-07T17:45:58;4;2;2
44045;PMS7003;29709;52.396;16.796;2023-05-07T17:49:11;3;2;2
44045;PMS7003;29709;52.396;16.796;2023-05-07T17:52:24;2;2;2
44045;PMS7003;29709;52.396;16.796;2023-05-07T17:55:41;2;1;1
44045;PMS7003;29709;52.396;16.796;2023-05-07T17:58:56;1;1;1
44045;PMS7003;29709;52.396;16.796;2023-05-07T18:02:09;4;4;4
44045;PMS7003;29709;52.396;16.796;2023-05-07T18:05:23;5;5;4
44045;PMS7003;29709;52.396;16.796;2023-05-07T18:08:36;3;3;3
44045;PMS7003;29709;52.396;16.796;2023-05-07T18:11:49;7;5;5
44045;PMS7003;29709;52.396;16.796;2023-05-07T18:15:03;4;3;3
44045;PMS7003;29709;52.396;16.796;2023-05-07T18:18:16;4;3;3
44045;PMS7003;29709;52.396;16.796;2023-05-07T18:21:32;2;2;2
44045;PMS7003;29709;52.396;16.796;2023-05-07T18:24:46;5;5;4
44045;PMS7003;29709;52.396;16.796;2023-05-07T18:27:59;11;11;8
44045;PMS7003;29709;52.396;16.796;2023-05-07T18:31:13;7;7;6
44045;PMS7003;29709;52.396;16.796;2023-05-07T18:34:26;7;7;6
44045;PMS7003;29709;52.396;16.796;2023-05-07T18:37:39;7;6;5
44045;PMS7003;29709;52.396;16.796;2023-05-07T18:40:58;7;6;5
44045;PMS7003;29709;52.396;16.796;2023-05-07T18:44:20;7;5;5
44045;PMS7003;29709;52.396;16.796;2023-05-07T18:47:33;7;6;5
44045;PMS7003;29709;52.396;16.796;2023-05-07T18:50:46;8;7;6
44045;PMS7003;29709;52.396;16.796;2023-05-07T18:54:00;8;6;4
44045;PMS7003;29709;52.396;16.796;2023-05-07T18:57:14;4;4;4
44045;PMS7003;29709;52.396;16.796;2023-05-07T19:00:28;4;3;3
44045;PMS7003;29709;52.396;16.796;2023-05-07T19:03:41;3;3;2
44045;PMS7003;29709;52.396;16.796;2023-05-07T19:06:54;4;3;3
44045;PMS7003;29709;52.396;16.796;2023-05-07T19:10:09;4;4;3
44045;PMS7003;29709;52.396;16.796;2023-05-07T19:13:22;5;4;4
44045;PMS7003;29709;52.396;16.796;2023-05-07T19:16:39;5;3;3
44045;PMS7003;29709;52.396;16.796;2023-05-07T19:19:53;3;3;2
44045;PMS7003;29709;52.396;16.796;2023-05-07T19:23:06;3;2;2
44045;PMS7003;29709;52.396;16.796;2023-05-07T19:26:24;4;4;4
44045;PMS7003;29709;52.396;16.796;2023-05-07T19:29:38;6;5;5
44045;PMS7003;29709;52.396;16.796;2023-05-07T19:32:52;10;10;7
44045;PMS7003;29709;52.396;16.796;2023-05-07T19:36:05;14;13;11
44045;PMS7003;29709;52.396;16.796;2023-05-07T19:39:19;12;11;8
44045;PMS7003;29709;52.396;16.796;2023-05-07T19:42:32;14;12;9
44045;PMS7003;29709;52.396;16.796;2023-05-07T19:45:46;12;12;9
44045;PMS7003;29709;52.396;16.796;2023-05-07T19:49:01;15;13;11
44045;PMS7003;29709;52.396;16.796;2023-05-07T19:52:14;16;12;10
44045;PMS7003;29709;52.396;16.796;2023-05-07T19:55:28;10;9;7
44045;PMS7003;29709;52.396;16.796;2023-05-07T19:58:42;12;10;8
44045;PMS7003;29709;52.396;16.796;2023-05-07T20:01:56;10;9;7
44045;PMS7003;29709;52.396;16.796;2023-05-07T20:05:09;9;8;5
44045;PMS7003;29709;52.396;16.796;2023-05-07T20:08:24;10;9;7
44045;PMS7003;29709;52.396;16.796;2023-05-07T20:11:38;14;8;6
44045;PMS7003;29709;52.396;16.796;2023-05-07T20:14:52;6;6;5
44045;PMS7003;29709;52.396;16.796;2023-05-07T20:18:05;11;8;6
44045;PMS7003;29709;52.396;16.796;2023-05-07T20:21:21;8;8;7
44045;PMS7003;29709;52.396;16.796;2023-05-07T20:24:37;8;7;5
44045;PMS7003;29709;52.396;16.796;2023-05-07T20:27:51;7;7;5
44045;PMS7003;29709;52.396;16.796;2023-05-07T20:31:05;9;8;7
44045;PMS7003;29709;52.396;16.796;2023-05-07T20:34:19;8;7;5
44045;PMS7003;29709;52.396;16.796;2023-05-07T20:37:32;7;6;5
44045;PMS7003;29709;52.396;16.796;2023-05-07T20:40:47;7;6;5
44045;PMS7003;29709;52.396;16.796;2023-05-07T20:44:00;9;7;6
44045;PMS7003;29709;52.396;16.796;2023-05-07T20:47:15;10;7;5
44045;PMS7003;29709;52.396;16.796;2023-05-07T20:50:28;10;8;7
44045;PMS7003;29709;52.396;16.796;2023-05-07T20:53:42;1;0;0
44045;PMS7003;29709;52.396;16.796;2023-05-07T20:56:55;9;7;5
44045;PMS7003;29709;52.396;16.796;2023-05-07T21:00:09;10;9;8
44045;PMS7003;29709;52.396;16.796;2023-05-07T21:03:24;8;6;5
44045;PMS7003;29709;52.396;16.796;2023-05-07T21:06:37;8;7;6
44045;PMS7003;29709;52.396;16.796;2023-05-07T21:09:50;7;6;5
44045;PMS7003;29709;52.396;16.796;2023-05-07T21:13:04;9;6;5
44045;PMS7003;29709;52.396;16.796;2023-05-07T21:16:17;9;7;6
44045;PMS7003;29709;52.396;16.796;2023-05-07T21:19:34;10;10;7
44045;PMS7003;29709;52.396;16.796;2023-05-07T21:22:47;11;9;7
44045;PMS7003;29709;52.396;16.796;2023-05-07T21:26:01;11;8;7
44045;PMS7003;29709;52.396;16.796;2023-05-07T21:29:14;11;9;6
44045;PMS7003;29709;52.396;16.796;2023-05-07T21:32:28;11;11;9
44045;PMS7003;29709;52.396;16.796;2023-05-07T21:35:42;10;9;7
44045;PMS7003;29709;52.396;16.796;2023-05-07T21:38:55;10;8;6
44045;PMS7003;29709;52.396;16.796;2023-05-07T21:42:09;8;7;6
44045;PMS7003;29709;52.396;16.796;2023-05-07T21:45:22;7;7;5
44045;PMS7003;29709;52.396;16.796;2023-05-07T21:48:35;8;8;6
44045;PMS7003;29709;52.396;16.796;2023-05-07T21:51:48;11;8;7